Time;durP1;ratioP1;P1;durP2;ratioP2;P2;SDS_P1;SDS_P2;PMS_P1;PMS_P2;Temp;Humidity;BMP_temperature;BMP_pressure;BME280_temperature;BME280_humidity;BME280_pressure;Samples;Min_cycle;Max_cycle;Signal;HPM_P1;HPM_P2
2022/01/01 00:00:35;;;;;;;2.77;2.57;;;;;;;18.17;51.98;98191.19;4867570;29;20198;-80
2022/01/01 00:03:02;;;;;;;2.60;2.37;;;;;;;18.75;52.01;98263.88;4866719;29;20202;-81
2022/01/01 00:05:29;;;;;;;3.37;2.77;;;;;;;16.98;51.89;97952.59;4865386;29;20202;-81
2022/01/01 00:07:57;;;;;;;2.33;2.13;;;;;;;17.42;51.84;98039.66;4881623;29;20256;-81
2022/01/01 00:10:24;;;;;;;2.60;2.40;;;;;;;18.48;52.03;98285.34;4866253;29;20250;-81
2022/01/01 00:12:50;;;;;;;2.60;2.40;;;;;;;18.03;51.92;98154.88;4865802;29;20261;-81
2022/01/01 00:15:18;;;;;;;2.57;2.30;;;;;;;18.67;51.74;98286.38;4865233;29;20237;-80
2022/01/01 00:17:44;;;;;;;2.77;2.57;;;;;;;17.74;51.35;98105.81;4880313;29;20238;-81
2022/01/01 00:20:13;;;;;;;2.90;2.23;;;;;;;18.83;51.57;98327.13;4881015;29;20244;-81
2022/01/01 00:22:40;;;;;;;2.77;2.57;;;;;;;18.90;51.59;98318.16;4850687;29;20435;-81
2022/01/01 00:25:07;;;;;;;2.50;2.30;;;;;;;18.57;51.80;98260.38;4846611;29;20302;-81
2022/01/01 00:27:34;;;;;;;3.13;2.30;;;;;;;19.20;51.70;98366.47;4864441;29;20525;-81
2022/01/01 00:30:01;;;;;;;3.00;2.70;;;;;;;18.57;51.76;98263.81;4897416;29;20253;-81
2022/01/01 00:32:27;;;;;;;2.70;2.50;;;;;;;18.42;51.60;98246.84;4865012;29;20250;-82
2022/01/01 00:34:54;;;;;;;2.97;2.67;;;;;;;18.91;51.71;98327.53;4864729;29;20227;-81
2022/01/01 00:37:21;;;;;;;2.50;2.30;;;;;;;18.50;51.46;98253.22;4880779;29;20255;-81
2022/01/01 00:39:47;;;;;;;2.67;2.47;;;;;;;18.90;51.76;98329.22;4850436;29;20235;-80
2022/01/01 00:42:14;;;;;;;2.80;2.60;;;;;;;18.46;51.62;98261.47;4850255;29;20202;-82
2022/01/01 00:44:41;;;;;;;2.63;2.43;;;;;;;19.17;51.89;98381.59;4850092;29;20735;-81
2022/01/01 00:47:07;;;;;;;2.50;2.30;;;;;;;18.60;51.76;98288.53;4884148;29;20317;-80
2022/01/01 00:49:34;;;;;;;2.80;2.60;;;;;;;17.94;51.57;98189.97;4852848;29;20206;-80
2022/01/01 00:52:01;;;;;;;2.80;2.60;;;;;;;18.78;51.82;98315.84;4883861;29;20206;-82
2022/01/01 00:54:27;;;;;;;2.60;2.40;;;;;;;17.93;51.71;98178.06;4869230;29;20253;-81
2022/01/01 00:56:55;;;;;;;2.67;2.47;;;;;;;18.87;51.98;98341.78;4853995;29;20855;-82
2022/01/01 00:59:21;;;;;;;3.33;2.70;;;;;;;18.50;51.99;98287.16;4901465;29;20292;-82
2022/01/01 01:01:48;;;;;;;2.50;2.30;;;;;;;18.70;51.72;98324.75;4853570;29;20226;-81
2022/01/01 01:04:15;;;;;;;2.67;2.47;;;;;;;18.97;51.78;98371.16;4842568;29;20685;-82
2022/01/01 01:06:41;;;;;;;2.70;2.50;;;;;;;18.32;51.97;98254.75;4839786;29;20237;-82
2022/01/01 01:09:08;;;;;;;2.70;2.50;;;;;;;19.10;51.67;98402.44;4865823;29;20725;-81
2022/01/01 01:11:41;;;;;;;3.10;2.80;;;;;;;18.57;51.58;98314.72;4883833;29;20685;-81
2022/01/01 01:14:18;;;;;;;3.00;2.70;;;;;;;19.00;51.72;98391.69;4865061;29;20259;-82
2022/01/01 01:16:45;;;;;;;2.60;2.40;;;;;;;18.77;51.61;98354.81;4871508;29;20226;-81
2022/01/01 01:19:12;;;;;;;2.60;2.40;;;;;;;19.11;51.76;98414.41;4897138;23;20240;-82
2022/01/01 01:21:38;;;;;;;2.90;2.70;;;;;;;18.56;51.79;98319.72;4883891;29;20205;-84
2022/01/01 01:24:05;;;;;;;2.60;2.40;;;;;;;16.24;51.74;97921.41;4889239;29;20230;-82
2022/01/01 01:26:32;;;;;;;3.37;2.80;;;;;;;18.40;51.86;98323.09;4889315;29;20698;-82
2022/01/01 01:29:01;;;;;;;3.50;2.70;;;;;;;17.20;51.51;98073.19;4876024;29;20290;-81
2022/01/01 01:31:29;;;;;;;2.80;2.57;;;;;;;17.70;51.97;98159.81;4871583;29;20580;-82
2022/01/01 01:33:56;;;;;;;2.70;2.50;;;;;;;15.46;51.61;97776.69;4871136;29;20253;-82
2022/01/01 01:36:22;;;;;;;3.03;2.40;;;;;;;16.29;50.98;98002.81;4867997;29;20344;-81
2022/01/01 01:38:49;;;;;;;2.73;2.53;;;;;;;17.38;52.04;98122.44;4875356;29;20461;-82
2022/01/01 01:41:15;;;;;;;2.80;2.60;;;;;;;14.93;52.08;97757.50;4889758;29;20209;-88
2022/01/01 01:43:42;;;;;;;2.97;2.67;;;;;;;15.59;51.75;97893.09;4872322;29;20233;-89
2022/01/01 01:46:12;;;;;;;2.40;2.20;;;;;;;13.25;51.81;97399.53;4902574;29;20288;-87
2022/01/01 01:48:40;;;;;;;2.70;2.50;;;;;;;15.92;51.84;97971.06;4886887;29;20226;-90
2022/01/01 01:51:07;;;;;;;3.27;2.97;;;;;;;17.77;52.06;98185.63;4871893;29;20242;-89
2022/01/01 01:53:33;;;;;;;2.90;2.70;;;;;;;16.13;52.12;97919.94;4869329;29;20328;-89
2022/01/01 01:56:00;;;;;;;2.93;2.70;;;;;;;17.19;52.06;98085.78;4884377;29;20621;-89
2022/01/01 01:58:30;;;;;;;2.97;2.57;;;;;;;16.24;52.09;98004.22;4866988;29;20720;-89
2022/01/01 02:03:42;;;;;;;3.00;2.80;;;;;;;12.36;51.85;97253.81;4901941;29;20197;-88
2022/01/01 02:06:09;;;;;;;2.73;2.53;;;;;;;16.36;52.04;97944.94;4886318;29;20365;-89
2022/01/01 02:08:36;;;;;;;2.77;2.57;;;;;;;11.13;51.84;97033.06;4881017;29;20242;-88
2022/01/01 02:11:02;;;;;;;3.07;2.77;;;;;;;17.30;52.18;98092.34;4868069;29;20258;-89
2022/01/01 02:13:34;;;;;;;2.93;2.63;;;;;;;15.65;52.03;97804.78;4877451;29;20711;-90
2022/01/01 02:18:52;;;;;;;2.93;2.40;;;;;;;12.11;51.99;97191.78;4897612;29;20236;-81
2022/01/01 02:21:20;;;;;;;2.60;2.40;;;;;;;14.20;52.01;97555.06;4869822;29;20245;-82
2022/01/01 02:23:48;;;;;;;2.80;2.60;;;;;;;9.82;51.86;96863.13;4869489;29;20210;-83
2022/01/01 02:26:15;;;;;;;2.77;2.57;;;;;;;12.28;51.99;97231.44;4854842;29;20210;-83
2022/01/01 02:28:43;;;;;;;2.77;2.57;;;;;;;12.28;51.84;97233.94;4855820;29;20218;-80
2022/01/01 02:31:10;;;;;;;2.70;2.50;;;;;;;16.40;52.13;97928.19;4869647;29;20230;-83
2022/01/01 02:33:37;;;;;;;2.83;2.63;;;;;;;15.22;51.73;97767.66;4869987;29;20237;-83
2022/01/01 02:36:04;;;;;;;2.73;2.53;;;;;;;15.43;51.70;97774.84;4855023;29;20239;-81
2022/01/01 02:38:35;;;;;;;2.77;2.57;;;;;;;14.42;51.68;97657.53;4879057;29;20256;-84
2022/01/01 02:41:02;;;;;;;2.70;2.50;;;;;;;19.16;51.86;98440.13;4888066;29;20202;-83
2022/01/01 02:43:29;;;;;;;2.63;2.43;;;;;;;14.90;51.55;97682.28;4869938;29;20258;-82
2022/01/01 02:45:55;;;;;;;2.70;2.50;;;;;;;14.59;51.43;97704.03;4888029;29;20205;-82
2022/01/01 02:48:23;;;;;;;2.60;2.40;;;;;;;13.21;51.71;97454.03;4910850;29;20226;-81
2022/01/01 02:50:52;;;;;;;2.93;2.73;;;;;;;18.81;51.98;98373.69;4881636;29;20206;-83
2022/01/01 02:53:19;;;;;;;2.60;2.40;;;;;;;18.80;51.83;98369.41;4869432;29;20210;-80
2022/01/01 02:55:46;;;;;;;2.80;2.60;;;;;;;17.64;51.67;98169.63;4884221;29;20330;-81
2022/01/01 02:58:12;;;;;;;2.87;2.67;;;;;;;17.93;51.60;98223.84;4874051;29;20654;-80
2022/01/01 03:00:39;;;;;;;3.00;2.80;;;;;;;15.18;51.62;97845.06;4861158;29;20233;-80
2022/01/01 03:03:06;;;;;;;2.73;2.53;;;;;;;18.75;51.93;98398.84;4871790;29;20297;-82
2022/01/01 03:05:35;;;;;;;2.67;2.47;;;;;;;17.08;51.98;98179.16;4888437;29;20212;-81
2022/01/01 03:08:02;;;;;;;2.87;2.67;;;;;;;13.97;51.65;97542.72;4888437;29;20512;-81
2022/01/01 03:10:29;;;;;;;2.70;2.50;;;;;;;14.15;52.00;97647.44;4892167;29;20234;-82
2022/01/01 03:12:55;;;;;;;2.80;2.60;;;;;;;14.36;51.58;97608.28;4907320;29;20202;-81
2022/01/01 03:15:22;;;;;;;2.73;2.53;;;;;;;15.50;51.87;97841.91;4903614;29;20277;-81
2022/01/01 03:17:49;;;;;;;2.70;2.50;;;;;;;18.37;51.76;98319.47;4872574;29;20241;-80
2022/01/01 03:20:15;;;;;;;2.73;2.53;;;;;;;17.35;51.77;98147.69;4887606;29;20257;-82
2022/01/01 03:22:42;;;;;;;3.03;2.80;;;;;;;12.06;52.01;97249.44;4920392;29;20274;-83
2022/01/01 03:25:08;;;;;;;2.90;2.70;;;;;;;16.38;52.65;97983.06;4903303;29;20273;-82
2022/01/01 03:27:35;;;;;;;2.83;2.60;;;;;;;13.53;51.73;97514.84;4883926;29;20283;-81
2022/01/01 03:30:02;;;;;;;3.07;2.77;;;;;;;15.91;51.91;97893.28;4888959;29;20248;-81
2022/01/01 03:32:29;;;;;;;2.70;2.47;;;;;;;18.07;52.08;98268.72;4869822;29;20246;-81
2022/01/01 03:34:56;;;;;;;2.73;2.53;;;;;;;18.86;51.71;98461.41;4892238;29;20304;-82
2022/01/01 03:37:23;;;;;;;3.03;2.73;;;;;;;17.87;52.13;98253.13;4870143;29;20202;-82
2022/01/01 03:39:50;;;;;;;3.20;2.90;;;;;;;16.21;51.86;97971.06;4872809;29;20249;-82
2022/01/01 03:42:17;;;;;;;2.90;2.60;;;;;;;16.02;52.02;97966.59;4872207;29;20197;-83
2022/01/01 03:44:43;;;;;;;2.73;2.53;;;;;;;16.67;51.78;98051.53;4887550;29;20648;-80
2022/01/01 03:47:10;;;;;;;2.80;2.57;;;;;;;13.17;52.05;97467.22;4872807;29;20241;-82
2022/01/01 03:49:37;;;;;;;2.90;2.70;;;;;;;17.81;52.16;98279.09;4885205;29;20202;-82
2022/01/01 03:52:04;;;;;;;3.20;2.90;;;;;;;12.58;51.96;97332.44;4887732;29;20245;-80
2022/01/01 03:54:31;;;;;;;2.67;2.47;;;;;;;15.92;51.86;98030.25;4889154;29;20249;-88
2022/01/01 03:56:58;;;;;;;2.70;2.50;;;;;;;12.55;52.02;97386.81;4890837;29;20660;-87
2022/01/01 03:59:25;;;;;;;2.60;2.40;;;;;;;16.02;52.10;98024.91;4870170;29;20250;-87
2022/01/01 04:01:52;;;;;;;2.93;2.47;;;;;;;7.94;52.32;96614.31;4872070;29;20301;-89
2022/01/01 04:04:22;;;;;;;2.90;2.70;;;;;;;15.67;52.05;97867.44;4868698;29;20198;-87
2022/01/01 04:06:49;;;;;;;2.53;2.33;;;;;;;13.46;51.81;97591.00;4864546;29;20218;-88
2022/01/01 04:09:16;;;;;;;3.00;2.70;;;;;;;14.04;51.92;97649.28;4877163;29;20229;-86
2022/01/01 04:11:43;;;;;;;2.97;2.67;;;;;;;17.02;51.87;98124.63;4921345;29;20229;-88
2022/01/01 04:14:15;;;;;;;2.70;2.50;;;;;;;17.22;51.77;98150.34;4905185;29;20715;-88
2022/01/01 04:16:42;;;;;;;2.50;2.30;;;;;;;16.09;51.99;97952.63;4906538;29;20224;-88
2022/01/01 04:19:09;;;;;;;3.10;2.80;;;;;;;17.13;51.77;98275.94;4890572;29;20257;-87
2022/01/01 04:21:35;;;;;;;2.73;2.40;;;;;;;11.03;52.10;97132.97;4877599;29;20237;-88
2022/01/01 04:24:02;;;;;;;2.73;2.53;;;;;;;15.02;52.05;97765.63;4890553;29;20676;-88
2022/01/01 04:26:29;;;;;;;3.10;2.80;;;;;;;14.27;51.79;97832.72;4890578;29;20230;-87
2022/01/01 04:28:55;;;;;;;2.63;2.43;;;;;;;10.92;51.55;97171.63;4906350;29;20218;-89
2022/01/01 04:31:22;;;;;;;2.70;2.50;;;;;;;16.92;52.18;98151.16;4874475;29;20202;-82
2022/01/01 04:33:49;;;;;;;2.60;2.40;;;;;;;12.51;51.82;97345.47;4870219;29;20206;-81
2022/01/01 04:36:15;;;;;;;2.47;2.27;;;;;;;15.16;51.85;97838.16;4856615;29;20213;-81
2022/01/01 04:38:44;;;;;;;2.60;2.40;;;;;;;15.53;52.01;97910.47;4861047;29;20253;-83
2022/01/01 04:41:12;;;;;;;2.53;2.33;;;;;;;16.93;51.81;98129.19;4890995;29;20278;-82
2022/01/01 04:43:43;;;;;;;2.40;2.20;;;;;;;12.48;51.66;97418.34;4891721;29;20676;-81
2022/01/01 04:46:10;;;;;;;2.87;2.57;;;;;;;18.81;51.92;98453.53;4875767;29;20300;-80
2022/01/01 04:48:37;;;;;;;2.90;2.70;;;;;;;12.93;51.63;97424.47;4904941;29;20512;-83
2022/01/01 04:51:06;;;;;;;2.83;2.63;;;;;;;17.62;51.98;98257.66;4905534;29;20235;-83
2022/01/01 04:53:34;;;;;;;2.63;2.43;;;;;;;18.33;51.97;98434.63;4890254;29;20205;-86
2022/01/01 04:56:05;;;;;;;3.13;2.83;;;;;;;17.78;51.50;98243.34;4889939;29;20317;-81
2022/01/01 04:58:32;;;;;;;2.40;2.20;;;;;;;17.17;51.87;98149.19;4889738;29;20222;-81
2022/01/01 05:00:59;;;;;;;2.67;2.47;;;;;;;17.69;51.76;98237.75;4856731;29;20234;-82
2022/01/01 05:03:25;;;;;;;2.67;2.47;;;;;;;19.20;51.54;98498.09;4877354;29;20213;-84
2022/01/01 05:05:52;;;;;;;2.43;2.23;;;;;;;17.46;51.76;98191.50;4906449;29;20225;-81
2022/01/01 05:08:19;;;;;;;2.23;2.03;;;;;;;14.93;51.89;97752.44;4906005;29;20266;-81
2022/01/01 05:10:45;;;;;;;2.60;2.40;;;;;;;18.65;51.98;98401.69;4912055;29;20249;-82
2022/01/01 05:13:14;;;;;;;2.43;2.23;;;;;;;14.27;51.64;97754.34;4905961;29;20664;-81
2022/01/01 05:15:40;;;;;;;2.80;2.60;;;;;;;16.77;52.06;98076.69;4905026;29;20225;-83
2022/01/01 05:18:07;;;;;;;3.00;2.70;;;;;;;14.89;51.85;97764.00;4905965;29;20272;-81
2022/01/01 05:20:33;;;;;;;2.97;2.50;;;;;;;18.23;51.70;98335.69;4889924;29;20198;-81
2022/01/01 05:23:00;;;;;;;3.10;2.60;;;;;;;16.45;51.72;98025.75;4905165;29;20300;-81
2022/01/01 05:25:28;;;;;;;2.77;2.57;;;;;;;13.69;51.75;97536.84;4905018;29;20233;-81
2022/01/01 05:27:54;;;;;;;2.40;2.20;;;;;;;17.74;51.89;98251.56;4893589;29;20720;-82
2022/01/01 05:30:21;;;;;;;2.43;2.23;;;;;;;16.37;51.67;98007.53;4863706;29;20587;-80
2022/01/01 05:32:47;;;;;;;2.50;2.30;;;;;;;14.98;51.63;97769.59;4886900;29;20205;-83
2022/01/01 05:35:14;;;;;;;2.67;2.47;;;;;;;14.22;51.65;97660.53;4889017;29;20316;-81
2022/01/01 05:37:40;;;;;;;2.37;2.17;;;;;;;13.66;51.60;97566.97;4885134;29;20258;-82
2022/01/01 05:40:08;;;;;;;2.60;2.40;;;;;;;14.07;51.69;97613.25;4892961;29;20202;-79
2022/01/01 05:42:35;;;;;;;2.77;2.57;;;;;;;13.16;51.48;97454.50;4887428;29;20213;-82
2022/01/01 05:45:01;;;;;;;2.33;2.13;;;;;;;18.00;51.83;98326.78;4886017;29;20229;-82
2022/01/01 05:47:28;;;;;;;2.70;2.50;;;;;;;18.95;51.75;98474.66;4863442;29;20237;-79
2022/01/01 05:49:54;;;;;;;2.40;2.20;;;;;;;19.13;51.81;98511.31;4873617;29;20237;-85
2022/01/01 05:52:21;;;;;;;2.67;2.47;;;;;;;17.57;52.05;98214.19;4875693;29;20230;-82
2022/01/01 05:54:48;;;;;;;2.50;2.30;;;;;;;17.46;52.11;98245.75;4889709;29;20249;-81
2022/01/01 05:57:14;;;;;;;2.60;2.40;;;;;;;17.36;51.71;98179.06;4870640;29;20259;-80
2022/01/01 05:59:41;;;;;;;2.77;2.57;;;;;;;16.55;52.04;98065.22;4901380;29;20202;-82
2022/01/01 06:02:09;;;;;;;2.63;2.43;;;;;;;12.86;52.10;97405.56;4869856;29;20205;-80
2022/01/01 06:04:36;;;;;;;2.60;2.40;;;;;;;13.08;51.73;97433.00;4885292;29;20202;-82
2022/01/01 06:07:03;;;;;;;2.57;2.37;;;;;;;18.49;52.21;98382.16;4866126;29;20234;-79
2022/01/01 06:09:29;;;;;;;2.67;2.47;;;;;;;18.12;52.17;98309.66;4874722;29;20722;-80
2022/01/01 06:11:56;;;;;;;2.60;2.40;;;;;;;17.10;52.19;98139.50;4885285;29;20246;-84
2022/01/01 06:14:22;;;;;;;2.70;2.50;;;;;;;18.64;51.92;98408.44;4885506;29;20209;-80
2022/01/01 06:16:50;;;;;;;2.60;2.40;;;;;;;18.12;51.98;98320.69;4884992;29;20230;-80
2022/01/01 06:19:16;;;;;;;2.70;2.50;;;;;;;18.12;52.09;98328.31;4885252;29;20332;-79
2022/01/01 06:21:43;;;;;;;2.40;2.20;;;;;;;12.62;51.97;97372.16;4869848;29;20289;-82
2022/01/01 06:24:09;;;;;;;2.50;2.30;;;;;;;17.74;52.18;98299.88;4866310;29;20686;-80
2022/01/01 06:26:37;;;;;;;2.60;2.40;;;;;;;19.03;52.16;98493.75;4851992;29;20266;-81
2022/01/01 06:29:04;;;;;;;2.80;2.60;;;;;;;16.45;52.13;98038.44;4898375;29;20329;-80
2022/01/01 06:31:31;;;;;;;2.50;2.30;;;;;;;18.45;52.02;98381.91;4876414;29;20208;-84
2022/01/01 06:33:58;;;;;;;2.60;2.40;;;;;;;17.68;52.76;98271.56;4882013;29;20597;-81
2022/01/01 06:36:26;;;;;;;3.23;2.60;;;;;;;16.22;52.21;98006.66;4868413;29;20304;-80
2022/01/01 06:38:53;;;;;;;2.60;2.40;;;;;;;16.99;52.29;98148.16;4885176;29;20413;-80
2022/01/01 06:41:20;;;;;;;2.43;2.23;;;;;;;18.50;52.13;98403.41;4884695;29;20229;-80
2022/01/01 06:43:47;;;;;;;2.80;2.60;;;;;;;16.20;52.37;97999.75;4884490;29;20682;-79
2022/01/01 06:46:13;;;;;;;2.70;2.50;;;;;;;18.13;52.23;98331.75;4880029;29;20293;-79
2022/01/01 06:48:40;;;;;;;2.60;2.40;;;;;;;16.72;52.20;98094.97;4865163;29;20739;-78
2022/01/01 06:51:06;;;;;;;2.60;2.40;;;;;;;18.74;52.10;98443.78;4864130;29;22162;-78
2022/01/01 06:53:33;;;;;;;2.50;2.30;;;;;;;18.81;52.10;98457.72;4881814;29;20266;-79
2022/01/01 06:56:05;;;;;;;2.33;2.20;;;;;;;16.96;52.27;98131.91;4857979;29;20716;-79
2022/01/01 06:58:33;;;;;;;2.50;2.30;;;;;;;18.42;52.41;98394.44;4899018;29;20225;-79
2022/01/01 07:01:00;;;;;;;2.40;2.20;;;;;;;19.02;52.43;98507.28;4880091;29;20644;-78
2022/01/01 07:03:27;;;;;;;2.67;2.47;;;;;;;18.39;52.21;98402.81;4880401;29;20236;-79
2022/01/01 07:05:53;;;;;;;2.73;2.53;;;;;;;18.91;52.20;98521.09;4900890;29;20198;-80
2022/01/01 07:08:20;;;;;;;2.80;2.60;;;;;;;18.82;52.09;98479.84;5017058;23;20229;-88
2022/01/01 07:10:46;;;;;;;2.93;2.63;;;;;;;18.93;52.11;98497.50;4867882;29;20350;-89
2022/01/01 07:13:13;;;;;;;2.77;2.53;;;;;;;18.95;52.11;98506.06;4867753;29;20284;-88
2022/01/01 07:15:40;;;;;;;2.90;2.70;;;;;;;18.87;52.35;98497.16;4898884;29;20313;-88
2022/01/01 07:18:07;;;;;;;2.80;2.60;;;;;;;18.84;52.28;98489.34;4869120;29;20217;-87
2022/01/01 07:20:33;;;;;;;3.23;2.93;;;;;;;18.88;52.26;98501.44;4868815;29;20257;-89
2022/01/01 07:23:00;;;;;;;2.73;2.53;;;;;;;18.79;52.38;98474.59;4868190;29;20639;-89
2022/01/01 07:25:27;;;;;;;2.97;2.77;;;;;;;18.82;52.24;98482.41;4899097;29;20252;-89
2022/01/01 07:27:53;;;;;;;3.33;3.10;;;;;;;18.77;52.31;98483.84;4868001;29;20640;-90
2022/01/01 07:30:20;;;;;;;3.20;2.90;;;;;;;18.82;52.37;98505.31;4880382;29;20250;-90
2022/01/01 07:32:47;;;;;;;3.40;3.10;;;;;;;18.61;52.30;98460.84;4865113;29;20211;-91
2022/01/01 07:35:15;;;;;;;3.30;3.00;;;;;;;18.87;52.24;98509.91;4884299;29;20245;-90
2022/01/01 07:37:41;;;;;;;3.03;2.73;;;;;;;18.87;52.46;98509.00;4867902;29;20300;-89
2022/01/01 07:40:10;;;;;;;3.60;3.30;;;;;;;18.39;52.23;98438.44;4868344;29;20296;-90
2022/01/01 07:42:37;;;;;;;3.20;2.90;;;;;;;18.69;52.39;98480.88;4868361;29;20730;-91
2022/01/01 07:45:04;;;;;;;3.30;3.00;;;;;;;18.95;52.41;98529.00;4880046;29;20683;-89
2022/01/01 07:47:31;;;;;;;3.63;3.33;;;;;;;18.71;52.25;98488.59;4864988;29;20569;-88
2022/01/01 07:49:58;;;;;;;3.33;3.03;;;;;;;18.83;52.26;98513.03;4903936;29;20623;-88
2022/01/01 07:52:24;;;;;;;3.43;3.13;;;;;;;18.57;52.19;98470.00;4883140;29;20256;-89
2022/01/01 07:54:51;;;;;;;3.40;3.10;;;;;;;18.98;52.09;98553.78;4869093;29;20226;-88
2022/01/01 07:57:18;;;;;;;3.57;3.23;;;;;;;18.66;52.16;98493.44;4897453;29;20317;-87
2022/01/01 07:59:44;;;;;;;3.47;3.17;;;;;;;18.89;52.33;98541.41;4886514;29;20300;-89
2022/01/01 08:02:11;;;;;;;3.50;3.20;;;;;;;18.86;52.36;98543.78;4901999;29;20244;-89
2022/01/01 08:04:38;;;;;;;3.07;2.77;;;;;;;18.72;51.98;98503.06;4868019;29;20214;-89
2022/01/01 08:07:04;;;;;;;3.67;3.37;;;;;;;18.92;52.36;98538.16;4885430;29;20289;-89
2022/01/01 08:09:51;;;;;;;3.50;3.20;;;;;;;18.83;52.22;98528.31;4888455;29;20236;-89
2022/01/01 08:12:17;;;;;;;3.73;3.43;;;;;;;18.92;52.36;98556.84;4886272;29;20229;-88
2022/01/01 08:14:44;;;;;;;3.43;3.13;;;;;;;18.73;52.46;98507.34;4870341;29;20690;-89
2022/01/01 08:17:11;;;;;;;3.80;3.47;;;;;;;18.79;52.46;98528.97;4902071;29;20240;-89
2022/01/01 08:19:38;;;;;;;3.60;3.30;;;;;;;18.75;52.37;98513.41;4870631;29;20257;-87
2022/01/01 08:22:05;;;;;;;3.40;3.10;;;;;;;18.69;52.40;98510.53;4870500;29;20264;-88
2022/01/01 08:24:31;;;;;;;3.30;3.00;;;;;;;18.98;52.32;98557.19;4869834;29;20300;-89
2022/01/01 08:26:58;;;;;;;3.93;3.60;;;;;;;18.83;52.13;98535.97;4869652;29;20241;-89
2022/01/01 08:29:26;;;;;;;4.17;3.30;;;;;;;18.66;52.15;98507.81;4860850;29;20235;-89
2022/01/01 08:31:52;;;;;;;3.57;3.27;;;;;;;18.67;52.37;98502.81;4888721;29;20305;-89
2022/01/01 09:20:06;;;;;;;4.27;3.20;;;;;;;18.93;52.33;98512.78;5439870;23;20245;-88
2022/01/01 09:22:32;;;;;;;2.87;2.60;;;;;;;18.68;52.22;98462.97;4880417;29;20286;-89
2022/01/01 09:24:59;;;;;;;3.23;2.93;;;;;;;19.05;51.69;98532.94;4902459;29;20285;-88
2022/01/01 09:27:26;;;;;;;7.10;3.20;;;;;;;18.90;52.16;98511.72;4878786;29;20647;-89
2022/01/01 09:29:52;;;;;;;3.40;3.10;;;;;;;18.97;51.84;98522.34;4880528;29;20265;-89
2022/01/01 09:32:20;;;;;;;3.37;3.07;;;;;;;18.95;52.07;98515.41;4895750;29;20294;-88
2022/01/01 09:34:47;;;;;;;3.40;3.10;;;;;;;19.00;51.92;98529.25;4879914;29;20641;-88
2022/01/01 09:37:13;;;;;;;3.20;2.90;;;;;;;18.94;51.86;98513.63;4884289;29;20285;-89
2022/01/01 09:39:40;;;;;;;2.83;2.63;;;;;;;18.95;51.91;98516.25;4861372;29;20322;-89
2022/01/01 09:42:07;;;;;;;3.23;2.97;;;;;;;18.91;51.87;98513.47;4876921;29;20651;-89
2022/01/01 09:44:35;;;;;;;3.40;3.10;;;;;;;19.09;51.96;98547.59;4876969;29;20235;-89
2022/01/01 09:47:01;;;;;;;3.47;3.17;;;;;;;18.88;51.87;98511.63;4846549;29;20231;-89
2022/01/01 09:49:28;;;;;;;3.37;3.07;;;;;;;18.94;51.79;98524.72;4861347;29;20323;-89
2022/01/01 09:51:55;;;;;;;3.10;2.80;;;;;;;18.98;51.76;98535.97;4876881;29;20211;-88
2022/01/01 09:54:22;;;;;;;3.63;3.00;;;;;;;18.84;51.84;98512.28;4860679;29;20257;-87
2022/01/01 09:56:49;;;;;;;2.90;2.70;;;;;;;19.00;51.79;98535.22;4860240;29;20234;-88
2022/01/01 09:59:16;;;;;;;3.10;2.87;;;;;;;19.06;52.08;98555.06;4875361;29;20258;-88
2022/01/01 10:01:44;;;;;;;3.60;3.10;;;;;;;18.63;51.57;98477.97;4861789;29;20243;-94
2022/01/01 10:50:34;;;;;;;3.63;3.23;;;;;;;19.10;51.60;98523.88;4935310;23;20302;-88
2022/01/01 10:53:23;;;;;;;3.47;3.13;;;;;;;18.86;51.70;98485.19;4853234;29;20289;-88
2022/01/01 10:55:55;;;;;;;3.17;2.87;;;;;;;19.07;51.86;98524.56;4849262;29;20668;-88
2022/01/01 10:58:29;;;;;;;3.20;2.90;;;;;;;18.93;51.65;98491.50;4879187;29;20277;-88
2022/01/01 11:01:00;;;;;;;3.53;3.23;;;;;;;18.93;51.69;98492.41;4864074;29;20671;-88
2022/01/01 11:03:28;;;;;;;3.03;2.73;;;;;;;18.95;51.76;98492.47;4878573;29;20317;-88
2022/01/01 11:06:06;;;;;;;3.50;3.20;;;;;;;18.82;51.60;98459.47;4863669;29;20587;-88
2022/01/01 11:08:33;;;;;;;3.40;3.10;;;;;;;19.09;51.54;98504.28;4848734;29;20301;-87
2022/01/01 11:10:59;;;;;;;3.17;2.87;;;;;;;19.00;51.54;98481.75;4848398;29;20257;-88
2022/01/01 11:13:26;;;;;;;3.20;2.90;;;;;;;18.92;52.16;98467.69;4863700;29;20633;-88
2022/01/01 11:15:52;;;;;;;3.00;2.70;;;;;;;18.96;51.95;98476.41;4863766;29;20237;-89
2022/01/01 11:18:19;;;;;;;3.37;3.07;;;;;;;18.88;51.23;98464.91;4848435;29;20229;-90
2022/01/01 11:20:46;;;;;;;3.00;2.70;;;;;;;19.09;51.25;98496.63;4849387;29;20237;-90
2022/01/01 11:23:12;;;;;;;3.13;2.83;;;;;;;19.19;51.34;98519.28;4864129;29;20293;-89
2022/01/01 11:25:40;;;;;;;3.00;2.70;;;;;;;19.18;51.44;98512.41;4848716;29;20233;-89
2022/01/01 11:28:11;;;;;;;4.13;3.20;;;;;;;19.08;51.42;98490.69;4848122;29;20253;-88
2022/01/01 11:30:46;;;;;;;3.00;2.80;;;;;;;19.20;51.51;98513.38;4847078;29;20281;-87
2022/01/01 11:33:15;;;;;;;3.27;2.97;;;;;;;19.10;51.41;98494.16;4842995;29;20234;-90
2022/01/01 11:35:44;;;;;;;3.27;2.97;;;;;;;18.95;51.56;98465.31;4863719;29;20257;-89
2022/01/01 11:38:15;;;;;;;3.37;3.07;;;;;;;18.72;51.67;98442.84;4863438;29;20329;-88
2022/01/01 11:40:53;;;;;;;3.37;3.07;;;;;;;18.93;51.63;98472.03;4847968;29;20297;-89
2022/01/01 11:43:32;;;;;;;3.50;3.03;;;;;;;19.21;51.65;98516.03;4849012;29;20285;-88
2022/01/01 11:46:20;;;;;;;3.27;2.97;;;;;;;18.98;51.78;98485.88;4878180;29;20500;-89
2022/01/01 11:48:51;;;;;;;3.63;3.20;;;;;;;19.20;51.65;98524.47;4862370;29;20238;-89
2022/01/01 11:51:21;;;;;;;3.50;3.20;;;;;;;19.19;51.75;98521.84;4862832;29;20727;-89
2022/01/01 11:54:08;;;;;;;3.70;3.40;;;;;;;19.18;51.81;98517.50;4862229;29;20229;-89
2022/01/01 11:56:46;;;;;;;3.30;3.00;;;;;;;19.17;51.90;98498.81;4862562;29;20261;-89
2022/01/01 11:59:23;;;;;;;3.70;3.40;;;;;;;18.98;51.96;98457.00;4877482;29;20230;-89
2022/01/01 12:01:51;;;;;;;3.40;3.10;;;;;;;19.01;51.69;98462.25;4878009;29;20234;-89
2022/01/01 12:04:37;;;;;;;3.30;3.00;;;;;;;18.85;51.98;98439.25;4850456;29;20690;-89
2022/01/01 12:07:16;;;;;;;3.10;2.80;;;;;;;18.96;52.07;98466.19;4838842;29;20234;-90
2022/01/01 12:10:06;;;;;;;3.50;3.20;;;;;;;19.13;52.09;98498.56;4864546;29;20636;-91
2022/01/01 12:12:36;;;;;;;3.80;3.40;;;;;;;19.12;52.03;98505.34;4870564;29;20202;-89
2022/01/01 12:15:03;;;;;;;4.60;3.20;;;;;;;19.02;52.13;98495.44;4877601;29;20650;-87
2022/01/01 12:17:42;;;;;;;4.03;3.70;;;;;;;18.81;51.90;98460.28;4847652;29;20304;-89
2022/01/01 12:20:13;;;;;;;3.40;3.10;;;;;;;19.01;52.08;98495.38;4847812;29;20245;-88
2022/01/01 12:22:39;;;;;;;3.40;3.10;;;;;;;18.95;52.15;98477.19;4862378;29;20202;-88
2022/01/01 12:25:07;;;;;;;3.53;3.23;;;;;;;19.08;52.03;98503.41;4847337;29;20373;-89
2022/01/01 12:27:42;;;;;;;3.50;3.20;;;;;;;18.67;52.13;98431.53;4863146;29;20209;-89
2022/01/01 12:30:09;;;;;;;3.50;3.20;;;;;;;18.77;52.10;98446.50;4862723;29;20241;-88
2022/01/01 12:32:37;;;;;;;3.70;3.20;;;;;;;18.55;52.17;98412.13;4847377;29;20210;-88
2022/01/01 12:35:08;;;;;;;3.53;3.23;;;;;;;18.93;52.09;98471.13;4845865;29;20234;-89
2022/01/01 12:37:35;;;;;;;3.47;3.17;;;;;;;19.02;52.28;98479.28;4846955;29;20722;-89
2022/01/01 12:40:06;;;;;;;3.23;2.93;;;;;;;18.71;52.13;98420.69;4839888;29;20256;-89
2022/01/01 12:42:33;;;;;;;3.53;3.10;;;;;;;19.03;51.97;98473.38;4862884;29;20202;-89
2022/01/01 12:45:05;;;;;;;3.43;3.13;;;;;;;18.46;51.84;98363.28;4880354;29;20230;-89
2022/01/01 12:47:32;;;;;;;3.83;3.43;;;;;;;18.63;51.97;98390.53;4881483;29;20206;-89
2022/01/01 12:50:03;;;;;;;3.17;2.87;;;;;;;18.80;52.13;98421.19;4865182;29;20272;-89
2022/01/01 12:52:30;;;;;;;3.63;3.13;;;;;;;18.98;52.12;98451.91;4850546;29;20619;-89
2022/01/01 12:55:00;;;;;;;3.47;3.17;;;;;;;18.94;52.00;98453.38;4863961;29;20748;-89
2022/01/01 12:57:31;;;;;;;3.30;3.00;;;;;;;18.89;52.06;98423.38;4858587;29;20254;-89
2022/01/01 13:00:19;;;;;;;3.87;3.40;;;;;;;18.79;52.10;98408.38;4854743;29;20241;-88
2022/01/01 13:48:46;;;;;;;3.27;2.97;;;;;;;18.36;52.09;98322.81;5280708;23;20230;-91
2022/01/01 13:51:21;;;;;;;3.13;2.83;;;;;;;16.75;52.16;98039.31;4849720;29;20207;-90
2022/01/01 13:53:49;;;;;;;3.30;3.00;;;;;;;18.22;52.06;98294.09;4863887;29;20584;-90
2022/01/01 13:56:18;;;;;;;3.00;2.70;;;;;;;17.64;52.11;98185.78;4850488;29;20218;-90
2022/01/01 13:58:49;;;;;;;2.87;2.67;;;;;;;17.33;52.13;98140.78;4850751;29;20226;-90
2022/01/01 14:01:17;;;;;;;3.27;2.97;;;;;;;18.29;51.89;98292.75;4850766;29;20207;-90